sensor_id;sensor_type;location;lat;lon;timestamp;P1;durP1;ratioP1;P2;durP2;ratioP2
13588;SDS011;6865;52.552;13.434;2022-12-16T00:01:21;55.47;;;29.13;;
13588;SDS011;6865;52.552;13.434;2022-12-16T00:03:49;60.97;;;30.80;;
13588;SDS011;6865;52.552;13.434;2022-12-16T00:06:21;49.43;;;27.10;;
13588;SDS011;6865;52.552;13.434;2022-12-16T00:08:49;45.03;;;25.63;;
13588;SDS011;6865;52.552;13.434;2022-12-16T00:11:17;37.20;;;22.83;;
13588;SDS011;6865;52.552;13.434;2022-12-16T00:13:45;42.47;;;24.53;;
13588;SDS011;6865;52.552;13.434;2022-12-16T00:16:13;40.43;;;23.07;;
13588;SDS011;6865;52.552;13.434;2022-12-16T00:18:41;37.50;;;21.97;;
13588;SDS011;6865;52.552;13.434;2022-12-16T00:21:08;41.97;;;22.00;;
13588;SDS011;6865;52.552;13.434;2022-12-16T00:23:35;36.30;;;21.13;;
13588;SDS011;6865;52.552;13.434;2022-12-16T00:26:04;37.37;;;20.23;;
13588;SDS011;6865;52.552;13.434;2022-12-16T00:28:31;33.73;;;20.20;;
13588;SDS011;6865;52.552;13.434;2022-12-16T00:30:58;37.10;;;20.40;;
13588;SDS011;6865;52.552;13.434;2022-12-16T00:33:25;34.13;;;20.83;;
13588;SDS011;6865;52.552;13.434;2022-12-16T00:35:53;34.43;;;19.93;;
13588;SDS011;6865;52.552;13.434;2022-12-16T00:38:21;33.07;;;20.43;;
13588;SDS011;6865;52.552;13.434;2022-12-16T00:40:48;33.30;;;20.07;;
13588;SDS011;6865;52.552;13.434;2022-12-16T00:43:17;31.53;;;19.17;;
13588;SDS011;6865;52.552;13.434;2022-12-16T00:45:45;32.33;;;18.67;;
13588;SDS011;6865;52.552;13.434;2022-12-16T00:48:13;31.37;;;18.77;;
13588;SDS011;6865;52.552;13.434;2022-12-16T00:50:40;32.30;;;19.07;;
13588;SDS011;6865;52.552;13.434;2022-12-16T00:53:09;33.17;;;18.80;;
13588;SDS011;6865;52.552;13.434;2022-12-16T00:55:35;28.83;;;18.23;;
13588;SDS011;6865;52.552;13.434;2022-12-16T00:58:02;28.57;;;17.50;;
13588;SDS011;6865;52.552;13.434;2022-12-16T01:00:29;31.60;;;18.77;;
13588;SDS011;6865;52.552;13.434;2022-12-16T01:02:55;31.23;;;18.17;;
13588;SDS011;6865;52.552;13.434;2022-12-16T01:05:22;28.63;;;18.23;;
13588;SDS011;6865;52.552;13.434;2022-12-16T01:07:52;29.63;;;18.03;;
13588;SDS011;6865;52.552;13.434;2022-12-16T01:10:20;31.10;;;17.57;;
13588;SDS011;6865;52.552;13.434;2022-12-16T01:12:48;29.73;;;18.70;;
13588;SDS011;6865;52.552;13.434;2022-12-16T01:15:15;31.03;;;17.83;;
13588;SDS011;6865;52.552;13.434;2022-12-16T01:17:43;31.10;;;18.03;;
13588;SDS011;6865;52.552;13.434;2022-12-16T01:20:10;33.87;;;18.03;;
13588;SDS011;6865;52.552;13.434;2022-12-16T01:22:36;27.97;;;17.03;;
13588;SDS011;6865;52.552;13.434;2022-12-16T01:25:03;28.17;;;17.77;;
13588;SDS011;6865;52.552;13.434;2022-12-16T01:27:30;29.03;;;17.93;;
13588;SDS011;6865;52.552;13.434;2022-12-16T01:29:57;31.00;;;17.70;;
13588;SDS011;6865;52.552;13.434;2022-12-16T01:32:24;28.57;;;16.97;;
13588;SDS011;6865;52.552;13.434;2022-12-16T01:34:51;29.53;;;18.30;;
13588;SDS011;6865;52.552;13.434;2022-12-16T01:37:21;28.17;;;17.53;;
13588;SDS011;6865;52.552;13.434;2022-12-16T01:39:49;29.23;;;17.57;;
13588;SDS011;6865;52.552;13.434;2022-12-16T01:42:19;29.97;;;17.77;;
13588;SDS011;6865;52.552;13.434;2022-12-16T01:44:47;31.27;;;17.63;;
13588;SDS011;6865;52.552;13.434;2022-12-16T01:47:18;30.67;;;18.03;;
13588;SDS011;6865;52.552;13.434;2022-12-16T01:50:01;30.67;;;17.40;;
13588;SDS011;6865;52.552;13.434;2022-12-16T01:52:36;29.20;;;18.40;;
13588;SDS011;6865;52.552;13.434;2022-12-16T01:58:13;25.90;;;15.73;;
13588;SDS011;6865;52.552;13.434;2022-12-16T02:00:47;28.20;;;17.17;;
13588;SDS011;6865;52.552;13.434;2022-12-16T02:03:15;28.37;;;17.70;;
13588;SDS011;6865;52.552;13.434;2022-12-16T02:05:42;25.70;;;16.37;;
13588;SDS011;6865;52.552;13.434;2022-12-16T02:08:12;29.20;;;17.80;;
13588;SDS011;6865;52.552;13.434;2022-12-16T02:10:45;28.73;;;17.17;;
13588;SDS011;6865;52.552;13.434;2022-12-16T02:19:09;26.40;;;17.20;;
13588;SDS011;6865;52.552;13.434;2022-12-16T02:22:15;29.47;;;16.10;;
13588;SDS011;6865;52.552;13.434;2022-12-16T02:25:08;28.60;;;17.23;;
13588;SDS011;6865;52.552;13.434;2022-12-16T02:28:09;28.57;;;17.00;;
13588;SDS011;6865;52.552;13.434;2022-12-16T02:30:50;24.63;;;15.90;;
13588;SDS011;6865;52.552;13.434;2022-12-16T02:39:30;27.17;;;16.67;;
13588;SDS011;6865;52.552;13.434;2022-12-16T02:42:10;28.30;;;16.67;;
13588;SDS011;6865;52.552;13.434;2022-12-16T02:44:43;27.13;;;16.17;;
13588;SDS011;6865;52.552;13.434;2022-12-16T02:47:20;30.60;;;17.33;;
13588;SDS011;6865;52.552;13.434;2022-12-16T02:49:48;26.37;;;16.80;;
13588;SDS011;6865;52.552;13.434;2022-12-16T02:52:17;27.77;;;17.00;;
13588;SDS011;6865;52.552;13.434;2022-12-16T02:54:47;27.97;;;17.00;;
13588;SDS011;6865;52.552;13.434;2022-12-16T02:57:35;26.40;;;16.27;;
13588;SDS011;6865;52.552;13.434;2022-12-16T03:00:23;26.83;;;16.00;;
13588;SDS011;6865;52.552;13.434;2022-12-16T03:05:32;29.03;;;16.53;;
13588;SDS011;6865;52.552;13.434;2022-12-16T03:08:04;26.97;;;16.33;;
13588;SDS011;6865;52.552;13.434;2022-12-16T03:10:35;26.43;;;16.20;;
13588;SDS011;6865;52.552;13.434;2022-12-16T03:13:06;28.90;;;16.97;;
13588;SDS011;6865;52.552;13.434;2022-12-16T03:15:35;28.23;;;16.20;;
13588;SDS011;6865;52.552;13.434;2022-12-16T03:18:04;27.23;;;16.63;;
13588;SDS011;6865;52.552;13.434;2022-12-16T03:20:51;27.13;;;16.40;;
13588;SDS011;6865;52.552;13.434;2022-12-16T03:23:27;29.53;;;16.70;;
13588;SDS011;6865;52.552;13.434;2022-12-16T03:26:01;27.30;;;15.43;;
13588;SDS011;6865;52.552;13.434;2022-12-16T03:28:39;26.97;;;15.83;;
13588;SDS011;6865;52.552;13.434;2022-12-16T03:31:33;24.80;;;15.63;;
13588;SDS011;6865;52.552;13.434;2022-12-16T03:34:10;28.87;;;16.67;;
13588;SDS011;6865;52.552;13.434;2022-12-16T03:37:05;25.60;;;15.33;;
13588;SDS011;6865;52.552;13.434;2022-12-16T03:39:35;25.90;;;15.77;;
13588;SDS011;6865;52.552;13.434;2022-12-16T03:42:06;26.70;;;17.30;;
13588;SDS011;6865;52.552;13.434;2022-12-16T03:44:34;26.13;;;17.30;;
13588;SDS011;6865;52.552;13.434;2022-12-16T03:47:01;28.10;;;16.17;;
13588;SDS011;6865;52.552;13.434;2022-12-16T03:49:28;24.27;;;15.83;;
13588;SDS011;6865;52.552;13.434;2022-12-16T03:51:55;25.87;;;15.53;;
13588;SDS011;6865;52.552;13.434;2022-12-16T03:54:21;25.73;;;15.47;;
13588;SDS011;6865;52.552;13.434;2022-12-16T03:56:49;26.17;;;16.63;;
13588;SDS011;6865;52.552;13.434;2022-12-16T03:59:15;28.00;;;16.20;;
13588;SDS011;6865;52.552;13.434;2022-12-16T04:01:42;28.80;;;16.90;;
13588;SDS011;6865;52.552;13.434;2022-12-16T04:04:09;26.83;;;16.17;;
13588;SDS011;6865;52.552;13.434;2022-12-16T04:06:36;24.83;;;16.43;;
13588;SDS011;6865;52.552;13.434;2022-12-16T04:09:03;29.87;;;16.00;;
13588;SDS011;6865;52.552;13.434;2022-12-16T04:11:30;30.00;;;16.70;;
13588;SDS011;6865;52.552;13.434;2022-12-16T04:14:15;27.50;;;16.87;;
13588;SDS011;6865;52.552;13.434;2022-12-16T04:17:00;28.50;;;16.57;;
13588;SDS011;6865;52.552;13.434;2022-12-16T04:19:46;26.47;;;16.47;;
13588;SDS011;6865;52.552;13.434;2022-12-16T04:22:37;29.90;;;16.13;;
13588;SDS011;6865;52.552;13.434;2022-12-16T04:25:31;28.13;;;17.43;;
13588;SDS011;6865;52.552;13.434;2022-12-16T04:28:01;30.23;;;17.17;;
13588;SDS011;6865;52.552;13.434;2022-12-16T04:30:29;26.13;;;16.50;;
13588;SDS011;6865;52.552;13.434;2022-12-16T04:33:00;24.33;;;15.33;;
13588;SDS011;6865;52.552;13.434;2022-12-16T04:35:49;27.13;;;16.43;;
13588;SDS011;6865;52.552;13.434;2022-12-16T04:38:35;29.40;;;17.13;;
13588;SDS011;6865;52.552;13.434;2022-12-16T04:41:20;32.20;;;17.33;;
13588;SDS011;6865;52.552;13.434;2022-12-16T04:44:05;26.37;;;16.53;;
13588;SDS011;6865;52.552;13.434;2022-12-16T04:46:51;26.10;;;15.60;;
13588;SDS011;6865;52.552;13.434;2022-12-16T04:49:36;23.70;;;15.27;;
13588;SDS011;6865;52.552;13.434;2022-12-16T04:52:22;28.87;;;16.40;;
13588;SDS011;6865;52.552;13.434;2022-12-16T04:55:08;24.30;;;15.53;;
13588;SDS011;6865;52.552;13.434;2022-12-16T04:57:54;28.80;;;16.50;;
13588;SDS011;6865;52.552;13.434;2022-12-16T05:00:41;30.47;;;15.63;;
13588;SDS011;6865;52.552;13.434;2022-12-16T05:03:27;28.33;;;16.10;;
13588;SDS011;6865;52.552;13.434;2022-12-16T05:06:14;25.70;;;16.03;;
13588;SDS011;6865;52.552;13.434;2022-12-16T05:09:00;26.50;;;16.33;;
13588;SDS011;6865;52.552;13.434;2022-12-16T05:11:46;24.63;;;16.23;;
13588;SDS011;6865;52.552;13.434;2022-12-16T05:14:31;25.17;;;15.93;;
13588;SDS011;6865;52.552;13.434;2022-12-16T05:17:17;26.47;;;15.83;;
13588;SDS011;6865;52.552;13.434;2022-12-16T05:20:02;24.17;;;14.77;;
13588;SDS011;6865;52.552;13.434;2022-12-16T05:22:48;24.73;;;15.93;;
13588;SDS011;6865;52.552;13.434;2022-12-16T05:25:33;27.70;;;16.07;;
13588;SDS011;6865;52.552;13.434;2022-12-16T05:28:18;26.23;;;15.73;;
13588;SDS011;6865;52.552;13.434;2022-12-16T05:31:04;25.50;;;15.27;;
13588;SDS011;6865;52.552;13.434;2022-12-16T05:33:50;26.23;;;15.97;;
13588;SDS011;6865;52.552;13.434;2022-12-16T05:36:35;23.67;;;14.93;;
13588;SDS011;6865;52.552;13.434;2022-12-16T05:39:20;23.33;;;15.13;;
13588;SDS011;6865;52.552;13.434;2022-12-16T05:42:06;23.53;;;15.37;;
13588;SDS011;6865;52.552;13.434;2022-12-16T05:44:52;30.77;;;15.83;;
13588;SDS011;6865;52.552;13.434;2022-12-16T05:47:38;27.60;;;15.17;;
13588;SDS011;6865;52.552;13.434;2022-12-16T05:50:23;27.67;;;16.47;;
13588;SDS011;6865;52.552;13.434;2022-12-16T05:53:09;23.37;;;15.63;;
13588;SDS011;6865;52.552;13.434;2022-12-16T05:55:54;29.80;;;16.97;;
13588;SDS011;6865;52.552;13.434;2022-12-16T05:58:39;27.00;;;16.67;;
13588;SDS011;6865;52.552;13.434;2022-12-16T06:01:25;28.67;;;16.10;;
13588;SDS011;6865;52.552;13.434;2022-12-16T06:04:10;25.80;;;16.43;;
13588;SDS011;6865;52.552;13.434;2022-12-16T06:06:55;28.00;;;16.47;;
13588;SDS011;6865;52.552;13.434;2022-12-16T06:09:41;29.17;;;17.03;;
13588;SDS011;6865;52.552;13.434;2022-12-16T06:12:26;27.03;;;16.47;;
13588;SDS011;6865;52.552;13.434;2022-12-16T06:15:11;30.10;;;16.57;;
13588;SDS011;6865;52.552;13.434;2022-12-16T06:17:57;28.33;;;17.77;;
13588;SDS011;6865;52.552;13.434;2022-12-16T06:20:42;28.40;;;17.13;;
13588;SDS011;6865;52.552;13.434;2022-12-16T06:23:28;27.23;;;17.37;;
13588;SDS011;6865;52.552;13.434;2022-12-16T06:26:13;33.87;;;17.37;;
13588;SDS011;6865;52.552;13.434;2022-12-16T06:28:58;26.87;;;15.90;;
13588;SDS011;6865;52.552;13.434;2022-12-16T06:31:44;27.20;;;15.80;;
13588;SDS011;6865;52.552;13.434;2022-12-16T06:34:29;29.47;;;17.30;;
13588;SDS011;6865;52.552;13.434;2022-12-16T06:37:14;30.37;;;16.63;;
13588;SDS011;6865;52.552;13.434;2022-12-16T06:40:00;29.27;;;14.97;;
13588;SDS011;6865;52.552;13.434;2022-12-16T06:42:46;28.30;;;16.30;;
13588;SDS011;6865;52.552;13.434;2022-12-16T06:45:31;27.47;;;15.93;;
13588;SDS011;6865;52.552;13.434;2022-12-16T06:48:17;28.70;;;16.37;;
13588;SDS011;6865;52.552;13.434;2022-12-16T06:51:02;27.97;;;16.23;;
13588;SDS011;6865;52.552;13.434;2022-12-16T06:53:47;28.90;;;16.60;;
13588;SDS011;6865;52.552;13.434;2022-12-16T06:56:33;28.93;;;17.00;;
13588;SDS011;6865;52.552;13.434;2022-12-16T06:59:18;27.80;;;16.03;;
13588;SDS011;6865;52.552;13.434;2022-12-16T07:02:03;31.20;;;17.10;;
13588;SDS011;6865;52.552;13.434;2022-12-16T07:04:49;28.77;;;17.53;;
13588;SDS011;6865;52.552;13.434;2022-12-16T07:07:34;32.13;;;18.27;;
13588;SDS011;6865;52.552;13.434;2022-12-16T07:10:20;32.70;;;18.33;;
13588;SDS011;6865;52.552;13.434;2022-12-16T07:13:05;31.87;;;19.00;;
13588;SDS011;6865;52.552;13.434;2022-12-16T07:15:50;31.80;;;16.80;;
13588;SDS011;6865;52.552;13.434;2022-12-16T07:18:36;28.10;;;16.90;;
13588;SDS011;6865;52.552;13.434;2022-12-16T07:21:21;28.60;;;17.30;;
13588;SDS011;6865;52.552;13.434;2022-12-16T07:24:06;29.77;;;16.60;;
13588;SDS011;6865;52.552;13.434;2022-12-16T07:26:52;34.47;;;17.57;;
13588;SDS011;6865;52.552;13.434;2022-12-16T07:29:37;31.80;;;19.33;;
13588;SDS011;6865;52.552;13.434;2022-12-16T07:32:23;32.30;;;19.13;;
13588;SDS011;6865;52.552;13.434;2022-12-16T07:35:08;34.73;;;18.90;;
13588;SDS011;6865;52.552;13.434;2022-12-16T07:37:57;35.97;;;20.63;;
13588;SDS011;6865;52.552;13.434;2022-12-16T07:40:42;32.80;;;20.80;;
13588;SDS011;6865;52.552;13.434;2022-12-16T07:43:30;42.13;;;21.50;;
13588;SDS011;6865;52.552;13.434;2022-12-16T07:46:16;38.47;;;21.40;;
13588;SDS011;6865;52.552;13.434;2022-12-16T07:49:01;33.47;;;19.17;;
13588;SDS011;6865;52.552;13.434;2022-12-16T07:51:47;39.77;;;20.03;;
13588;SDS011;6865;52.552;13.434;2022-12-16T07:54:33;34.53;;;20.10;;
13588;SDS011;6865;52.552;13.434;2022-12-16T07:57:20;34.37;;;20.20;;
13588;SDS011;6865;52.552;13.434;2022-12-16T08:00:06;40.93;;;21.17;;
13588;SDS011;6865;52.552;13.434;2022-12-16T08:02:52;34.47;;;19.53;;
13588;SDS011;6865;52.552;13.434;2022-12-16T08:05:38;37.83;;;20.23;;
13588;SDS011;6865;52.552;13.434;2022-12-16T08:08:24;31.13;;;18.37;;
13588;SDS011;6865;52.552;13.434;2022-12-16T08:11:09;41.17;;;21.50;;
13588;SDS011;6865;52.552;13.434;2022-12-16T08:13:55;34.47;;;19.70;;
13588;SDS011;6865;52.552;13.434;2022-12-16T08:16:40;36.77;;;20.43;;
13588;SDS011;6865;52.552;13.434;2022-12-16T08:19:25;33.57;;;19.47;;
13588;SDS011;6865;52.552;13.434;2022-12-16T08:22:21;33.87;;;18.90;;
13588;SDS011;6865;52.552;13.434;2022-12-16T08:25:07;32.17;;;19.87;;
13588;SDS011;6865;52.552;13.434;2022-12-16T08:27:53;32.73;;;19.30;;
13588;SDS011;6865;52.552;13.434;2022-12-16T08:30:39;43.70;;;22.83;;
13588;SDS011;6865;52.552;13.434;2022-12-16T08:33:24;35.63;;;19.67;;
13588;SDS011;6865;52.552;13.434;2022-12-16T08:36:10;35.37;;;20.10;;
13588;SDS011;6865;52.552;13.434;2022-12-16T08:38:55;35.13;;;20.57;;
13588;SDS011;6865;52.552;13.434;2022-12-16T08:41:41;28.50;;;18.03;;
13588;SDS011;6865;52.552;13.434;2022-12-16T08:44:26;30.50;;;18.80;;
13588;SDS011;6865;52.552;13.434;2022-12-16T08:47:12;39.60;;;19.17;;
13588;SDS011;6865;52.552;13.434;2022-12-16T08:49:57;35.60;;;20.07;;
13588;SDS011;6865;52.552;13.434;2022-12-16T08:52:43;34.37;;;19.57;;
13588;SDS011;6865;52.552;13.434;2022-12-16T08:55:28;35.20;;;19.43;;
13588;SDS011;6865;52.552;13.434;2022-12-16T08:58:13;37.40;;;19.23;;
13588;SDS011;6865;52.552;13.434;2022-12-16T09:00:59;34.10;;;20.60;;
13588;SDS011;6865;52.552;13.434;2022-12-16T09:03:44;35.13;;;19.43;;
13588;SDS011;6865;52.552;13.434;2022-12-16T09:06:30;31.53;;;18.63;;
13588;SDS011;6865;52.552;13.434;2022-12-16T09:09:15;30.60;;;18.57;;
13588;SDS011;6865;52.552;13.434;2022-12-16T09:12:01;32.27;;;18.80;;
13588;SDS011;6865;52.552;13.434;2022-12-16T09:14:46;30.37;;;18.57;;
13588;SDS011;6865;52.552;13.434;2022-12-16T09:17:31;31.70;;;19.10;;
13588;SDS011;6865;52.552;13.434;2022-12-16T09:20:18;32.53;;;19.67;;
13588;SDS011;6865;52.552;13.434;2022-12-16T09:23:03;32.60;;;19.03;;
13588;SDS011;6865;52.552;13.434;2022-12-16T09:25:49;31.67;;;19.23;;
13588;SDS011;6865;52.552;13.434;2022-12-16T09:28:35;33.00;;;19.13;;
13588;SDS011;6865;52.552;13.434;2022-12-16T09:31:23;36.50;;;21.43;;
13588;SDS011;6865;52.552;13.434;2022-12-16T09:34:10;30.13;;;19.53;;
13588;SDS011;6865;52.552;13.434;2022-12-16T09:37:02;34.23;;;19.87;;
13588;SDS011;6865;52.552;13.434;2022-12-16T09:39:48;32.93;;;19.47;;
13588;SDS011;6865;52.552;13.434;2022-12-16T09:46:01;34.13;;;18.80;;
13588;SDS011;6865;52.552;13.434;2022-12-16T09:49:11;36.23;;;19.07;;
13588;SDS011;6865;52.552;13.434;2022-12-16T09:52:13;33.37;;;19.90;;
13588;SDS011;6865;52.552;13.434;2022-12-16T09:55:03;32.87;;;19.70;;
13588;SDS011;6865;52.552;13.434;2022-12-16T09:57:49;32.57;;;19.30;;
13588;SDS011;6865;52.552;13.434;2022-12-16T10:00:35;34.73;;;20.07;;
13588;SDS011;6865;52.552;13.434;2022-12-16T10:03:21;32.40;;;19.43;;
13588;SDS011;6865;52.552;13.434;2022-12-16T10:06:21;29.83;;;18.83;;
13588;SDS011;6865;52.552;13.434;2022-12-16T10:12:38;30.27;;;19.33;;
13588;SDS011;6865;52.552;13.434;2022-12-16T10:15:37;32.20;;;19.90;;
13588;SDS011;6865;52.552;13.434;2022-12-16T10:21:40;32.17;;;19.13;;
13588;SDS011;6865;52.552;13.434;2022-12-16T10:27:53;35.57;;;20.50;;
13588;SDS011;6865;52.552;13.434;2022-12-16T10:30:41;30.17;;;18.87;;
13588;SDS011;6865;52.552;13.434;2022-12-16T10:33:27;31.97;;;19.47;;
13588;SDS011;6865;52.552;13.434;2022-12-16T10:36:34;31.87;;;20.07;;
13588;SDS011;6865;52.552;13.434;2022-12-16T10:42:20;32.33;;;19.83;;
13588;SDS011;6865;52.552;13.434;2022-12-16T10:45:12;35.80;;;21.63;;
13588;SDS011;6865;52.552;13.434;2022-12-16T10:48:11;34.13;;;20.67;;
13588;SDS011;6865;52.552;13.434;2022-12-16T10:50:58;36.97;;;21.27;;
13588;SDS011;6865;52.552;13.434;2022-12-16T10:53:51;33.10;;;21.30;;
13588;SDS011;6865;52.552;13.434;2022-12-16T10:56:54;33.53;;;20.57;;
13588;SDS011;6865;52.552;13.434;2022-12-16T10:59:49;32.80;;;20.93;;
13588;SDS011;6865;52.552;13.434;2022-12-16T11:02:34;34.97;;;20.67;;
13588;SDS011;6865;52.552;13.434;2022-12-16T11:05:38;34.87;;;21.00;;
13588;SDS011;6865;52.552;13.434;2022-12-16T11:11:23;37.00;;;20.00;;
13588;SDS011;6865;52.552;13.434;2022-12-16T11:14:18;34.27;;;20.70;;
13588;SDS011;6865;52.552;13.434;2022-12-16T11:17:28;30.80;;;18.87;;
13588;SDS011;6865;52.552;13.434;2022-12-16T11:20:27;34.50;;;19.67;;
13588;SDS011;6865;52.552;13.434;2022-12-16T11:23:14;34.57;;;20.43;;
13588;SDS011;6865;52.552;13.434;2022-12-16T11:26:08;35.70;;;20.93;;
13588;SDS011;6865;52.552;13.434;2022-12-16T11:29:03;36.53;;;21.93;;
13588;SDS011;6865;52.552;13.434;2022-12-16T11:31:49;32.63;;;20.87;;
13588;SDS011;6865;52.552;13.434;2022-12-16T11:34:38;32.33;;;20.83;;
13588;SDS011;6865;52.552;13.434;2022-12-16T11:37:25;37.00;;;20.53;;
13588;SDS011;6865;52.552;13.434;2022-12-16T11:40:14;32.67;;;20.57;;
13588;SDS011;6865;52.552;13.434;2022-12-16T11:43:03;33.40;;;21.33;;
13588;SDS011;6865;52.552;13.434;2022-12-16T11:45:50;34.20;;;21.17;;
13588;SDS011;6865;52.552;13.434;2022-12-16T11:48:49;33.10;;;21.90;;
13588;SDS011;6865;52.552;13.434;2022-12-16T11:51:38;32.07;;;21.03;;
13588;SDS011;6865;52.552;13.434;2022-12-16T11:54:51;42.47;;;21.07;;
13588;SDS011;6865;52.552;13.434;2022-12-16T11:57:46;35.43;;;21.20;;
13588;SDS011;6865;52.552;13.434;2022-12-16T12:00:51;33.87;;;20.73;;
13588;SDS011;6865;52.552;13.434;2022-12-16T12:03:45;35.00;;;20.73;;
13588;SDS011;6865;52.552;13.434;2022-12-16T12:06:51;33.33;;;19.30;;
13588;SDS011;6865;52.552;13.434;2022-12-16T12:13:05;30.70;;;18.80;;
13588;SDS011;6865;52.552;13.434;2022-12-16T12:16:01;33.37;;;19.83;;
13588;SDS011;6865;52.552;13.434;2022-12-16T12:19:04;28.67;;;19.00;;
13588;SDS011;6865;52.552;13.434;2022-12-16T12:22:10;29.50;;;19.50;;
13588;SDS011;6865;52.552;13.434;2022-12-16T12:25:21;30.63;;;19.73;;
13588;SDS011;6865;52.552;13.434;2022-12-16T12:31:31;35.07;;;19.80;;
13588;SDS011;6865;52.552;13.434;2022-12-16T12:34:29;32.57;;;19.93;;
13588;SDS011;6865;52.552;13.434;2022-12-16T12:37:33;31.33;;;19.77;;
13588;SDS011;6865;52.552;13.434;2022-12-16T12:40:38;30.57;;;19.67;;
13588;SDS011;6865;52.552;13.434;2022-12-16T12:46:56;30.57;;;19.83;;
13588;SDS011;6865;52.552;13.434;2022-12-16T12:55:41;32.30;;;20.47;;
13588;SDS011;6865;52.552;13.434;2022-12-16T12:58:40;32.13;;;19.73;;
13588;SDS011;6865;52.552;13.434;2022-12-16T13:01:28;32.47;;;20.10;;
13588;SDS011;6865;52.552;13.434;2022-12-16T13:04:17;34.17;;;20.90;;
13588;SDS011;6865;52.552;13.434;2022-12-16T13:07:05;32.20;;;21.20;;
13588;SDS011;6865;52.552;13.434;2022-12-16T13:10:13;33.80;;;21.53;;
13588;SDS011;6865;52.552;13.434;2022-12-16T13:22:34;33.33;;;20.80;;
13588;SDS011;6865;52.552;13.434;2022-12-16T13:25:33;30.87;;;20.27;;
13588;SDS011;6865;52.552;13.434;2022-12-16T13:28:34;32.73;;;20.67;;
13588;SDS011;6865;52.552;13.434;2022-12-16T13:31:24;31.10;;;20.27;;
13588;SDS011;6865;52.552;13.434;2022-12-16T13:37:05;34.30;;;20.63;;
13588;SDS011;6865;52.552;13.434;2022-12-16T13:40:21;33.77;;;20.57;;
13588;SDS011;6865;52.552;13.434;2022-12-16T13:46:39;30.80;;;20.63;;
13588;SDS011;6865;52.552;13.434;2022-12-16T13:52:21;33.23;;;20.57;;
13588;SDS011;6865;52.552;13.434;2022-12-16T13:58:25;35.80;;;21.77;;
13588;SDS011;6865;52.552;13.434;2022-12-16T14:01:33;33.70;;;20.93;;
13588;SDS011;6865;52.552;13.434;2022-12-16T14:04:24;34.73;;;21.37;;
13588;SDS011;6865;52.552;13.434;2022-12-16T14:07:12;37.10;;;22.30;;
13588;SDS011;6865;52.552;13.434;2022-12-16T14:10:00;35.20;;;22.50;;
13588;SDS011;6865;52.552;13.434;2022-12-16T14:16:24;41.20;;;22.83;;
13588;SDS011;6865;52.552;13.434;2022-12-16T14:19:27;37.67;;;22.87;;
13588;SDS011;6865;52.552;13.434;2022-12-16T14:25:35;35.73;;;22.43;;
13588;SDS011;6865;52.552;13.434;2022-12-16T14:28:27;36.43;;;23.23;;
13588;SDS011;6865;52.552;13.434;2022-12-16T14:31:26;35.60;;;22.10;;
13588;SDS011;6865;52.552;13.434;2022-12-16T14:34:19;37.73;;;22.57;;
13588;SDS011;6865;52.552;13.434;2022-12-16T14:40:02;34.43;;;21.90;;
13588;SDS011;6865;52.552;13.434;2022-12-16T14:42:50;35.90;;;22.33;;
13588;SDS011;6865;52.552;13.434;2022-12-16T14:45:38;39.67;;;22.90;;
13588;SDS011;6865;52.552;13.434;2022-12-16T14:48:35;33.60;;;21.70;;
13588;SDS011;6865;52.552;13.434;2022-12-16T14:51:26;35.80;;;22.57;;
13588;SDS011;6865;52.552;13.434;2022-12-16T14:54:21;37.97;;;23.13;;
13588;SDS011;6865;52.552;13.434;2022-12-16T14:57:15;36.27;;;22.87;;
13588;SDS011;6865;52.552;13.434;2022-12-16T15:03:16;41.40;;;22.80;;
13588;SDS011;6865;52.552;13.434;2022-12-16T15:06:10;39.73;;;22.90;;
13588;SDS011;6865;52.552;13.434;2022-12-16T15:09:02;34.17;;;21.43;;
13588;SDS011;6865;52.552;13.434;2022-12-16T15:11:50;35.30;;;22.07;;
13588;SDS011;6865;52.552;13.434;2022-12-16T15:14:38;37.20;;;22.93;;
13588;SDS011;6865;52.552;13.434;2022-12-16T15:17:32;35.13;;;22.63;;
13588;SDS011;6865;52.552;13.434;2022-12-16T15:20:30;34.87;;;21.93;;
13588;SDS011;6865;52.552;13.434;2022-12-16T15:23:20;34.70;;;21.67;;
13588;SDS011;6865;52.552;13.434;2022-12-16T15:29:03;36.87;;;23.20;;
13588;SDS011;6865;52.552;13.434;2022-12-16T15:31:50;34.63;;;20.93;;
13588;SDS011;6865;52.552;13.434;2022-12-16T15:34:47;36.30;;;23.07;;
13588;SDS011;6865;52.552;13.434;2022-12-16T15:37:36;36.47;;;22.97;;
13588;SDS011;6865;52.552;13.434;2022-12-16T15:40:30;38.77;;;23.40;;
13588;SDS011;6865;52.552;13.434;2022-12-16T15:43:29;34.27;;;22.17;;
13588;SDS011;6865;52.552;13.434;2022-12-16T15:46:23;36.83;;;23.67;;
13588;SDS011;6865;52.552;13.434;2022-12-16T15:55:28;35.70;;;22.60;;
13588;SDS011;6865;52.552;13.434;2022-12-16T15:58:19;38.10;;;23.03;;
13588;SDS011;6865;52.552;13.434;2022-12-16T16:01:14;39.80;;;23.83;;
13588;SDS011;6865;52.552;13.434;2022-12-16T16:04:01;38.80;;;23.13;;
13588;SDS011;6865;52.552;13.434;2022-12-16T16:06:48;38.47;;;23.93;;
13588;SDS011;6865;52.552;13.434;2022-12-16T16:09:36;36.93;;;23.80;;
13588;SDS011;6865;52.552;13.434;2022-12-16T16:12:23;40.90;;;23.93;;
13588;SDS011;6865;52.552;13.434;2022-12-16T16:15:10;40.70;;;24.33;;
13588;SDS011;6865;52.552;13.434;2022-12-16T16:17:57;41.77;;;24.73;;
13588;SDS011;6865;52.552;13.434;2022-12-16T16:20:44;39.73;;;23.20;;
13588;SDS011;6865;52.552;13.434;2022-12-16T16:23:30;41.67;;;24.80;;
13588;SDS011;6865;52.552;13.434;2022-12-16T16:26:16;38.30;;;23.37;;
13588;SDS011;6865;52.552;13.434;2022-12-16T16:29:03;40.30;;;23.17;;
13588;SDS011;6865;52.552;13.434;2022-12-16T16:31:49;41.57;;;24.83;;
13588;SDS011;6865;52.552;13.434;2022-12-16T16:34:34;40.57;;;24.60;;
13588;SDS011;6865;52.552;13.434;2022-12-16T16:37:20;38.20;;;23.53;;
13588;SDS011;6865;52.552;13.434;2022-12-16T16:40:16;40.07;;;23.87;;
13588;SDS011;6865;52.552;13.434;2022-12-16T16:43:15;39.70;;;24.47;;
13588;SDS011;6865;52.552;13.434;2022-12-16T16:46:02;42.30;;;24.50;;
13588;SDS011;6865;52.552;13.434;2022-12-16T16:49:30;38.13;;;24.20;;
13588;SDS011;6865;52.552;13.434;2022-12-16T16:52:18;41.63;;;25.20;;
13588;SDS011;6865;52.552;13.434;2022-12-16T16:55:05;39.93;;;25.13;;
13588;SDS011;6865;52.552;13.434;2022-12-16T16:57:51;38.43;;;24.57;;
13588;SDS011;6865;52.552;13.434;2022-12-16T17:00:36;39.03;;;24.30;;
13588;SDS011;6865;52.552;13.434;2022-12-16T17:03:22;39.60;;;24.27;;
13588;SDS011;6865;52.552;13.434;2022-12-16T17:06:08;41.33;;;25.00;;
13588;SDS011;6865;52.552;13.434;2022-12-16T17:08:54;43.23;;;26.23;;
13588;SDS011;6865;52.552;13.434;2022-12-16T17:11:39;42.50;;;25.43;;
13588;SDS011;6865;52.552;13.434;2022-12-16T17:14:24;38.47;;;23.70;;
13588;SDS011;6865;52.552;13.434;2022-12-16T17:17:10;39.33;;;24.03;;
13588;SDS011;6865;52.552;13.434;2022-12-16T17:19:55;40.07;;;24.03;;
13588;SDS011;6865;52.552;13.434;2022-12-16T17:22:41;40.10;;;23.63;;
13588;SDS011;6865;52.552;13.434;2022-12-16T17:25:26;39.30;;;24.53;;
13588;SDS011;6865;52.552;13.434;2022-12-16T17:28:11;41.90;;;24.37;;
13588;SDS011;6865;52.552;13.434;2022-12-16T17:30:57;38.80;;;23.20;;
13588;SDS011;6865;52.552;13.434;2022-12-16T17:33:42;37.13;;;23.80;;
13588;SDS011;6865;52.552;13.434;2022-12-16T17:36:28;40.67;;;24.77;;
13588;SDS011;6865;52.552;13.434;2022-12-16T17:39:13;38.90;;;24.10;;